Time;durP1;ratioP1;P1;durP2;ratioP2;P2;SDS_P1;SDS_P2;PMS_P1;PMS_P2;Temp;Humidity;BMP_temperature;BMP_pressure;BME280_temperature;BME280_humidity;BME280_pressure;Samples;Min_cycle;Max_cycle;Signal;HPM_P1;HPM_P2
2022/12/12 00:50:03;;;;;;;3.97;3.67;;;6.10;99.90;;;;;;5159649;27;20601;-92
2022/12/12 00:52:34;;;;;;;4.27;3.87;;;6.10;99.90;;;;;;5157781;27;20238;-88
2022/12/12 00:55:08;;;;;;;12.83;9.30;;;6.20;99.90;;;;;;5157309;27;20289;-88
2022/12/12 00:57:41;;;;;;;11.13;8.07;;;6.20;99.90;;;;;;5157515;27;20209;-87
2022/12/12 01:00:15;;;;;;;11.23;8.17;;;6.20;99.90;;;;;;5157448;27;20206;-87
2022/12/12 01:02:47;;;;;;;17.87;13.87;;;6.30;99.90;;;;;;5166837;27;20188;-86
2022/12/12 01:05:22;;;;;;;13.13;11.70;;;6.20;99.90;;;;;;5176293;27;20232;-88
2022/12/12 01:07:52;;;;;;;6.33;5.03;;;6.30;99.90;;;;;;5175976;27;20231;-86
2022/12/12 01:10:24;;;;;;;3.83;3.40;;;6.30;99.90;;;;;;5175287;27;20192;-86
2022/12/12 01:12:55;;;;;;;4.00;3.63;;;6.30;99.90;;;;;;5174483;27;20199;-88
2022/12/12 01:15:26;;;;;;;4.93;3.73;;;6.40;99.90;;;;;;5166985;27;20199;-87
2022/12/12 01:17:57;;;;;;;4.13;2.97;;;6.30;99.90;;;;;;5157657;27;20208;-87
2022/12/12 01:20:31;;;;;;;3.77;3.20;;;6.30;99.90;;;;;;5157261;27;20309;-87
2022/12/12 01:23:02;;;;;;;4.33;3.30;;;6.30;99.90;;;;;;5158010;27;20197;-86
2022/12/12 01:25:33;;;;;;;4.80;3.40;;;6.30;99.90;;;;;;5161307;27;20304;-86
2022/12/12 01:28:05;;;;;;;3.47;3.17;;;6.30;99.90;;;;;;5160155;27;20257;-87
2022/12/12 01:30:36;;;;;;;3.30;3.00;;;6.40;99.90;;;;;;5159553;27;20221;-86
2022/12/12 01:33:07;;;;;;;3.83;3.43;;;6.40;99.90;;;;;;5157107;27;20201;-86
2022/12/12 01:35:40;;;;;;;3.23;2.83;;;6.40;99.90;;;;;;5157053;27;20223;-86
2022/12/12 01:38:11;;;;;;;4.07;3.10;;;6.40;99.90;;;;;;5157592;27;20316;-86
2022/12/12 01:40:41;;;;;;;3.13;2.83;;;6.40;99.90;;;;;;5156841;27;20219;-87
2022/12/12 01:43:15;;;;;;;2.97;2.77;;;6.40;99.90;;;;;;5156110;27;20205;-87
2022/12/12 01:46:23;;;;;;;3.63;3.33;;;6.30;99.90;;;;;;5157134;27;20185;-87
2022/12/12 01:48:59;;;;;;;3.73;3.13;;;6.30;99.90;;;;;;5156437;27;20229;-87
2022/12/12 01:51:33;;;;;;;3.50;3.20;;;6.30;99.90;;;;;;5158784;27;20201;-88
2022/12/12 01:54:08;;;;;;;4.63;3.50;;;6.30;99.90;;;;;;5156190;27;20228;-87
2022/12/12 01:56:42;;;;;;;3.53;3.23;;;6.30;99.90;;;;;;5156512;27;20211;-87
2022/12/12 01:59:15;;;;;;;3.27;2.97;;;6.30;99.90;;;;;;5153509;27;20598;-88
2022/12/12 02:01:47;;;;;;;3.40;3.10;;;6.30;99.90;;;;;;5142636;27;20609;-87
2022/12/12 02:04:18;;;;;;;4.37;3.73;;;6.30;99.90;;;;;;5141281;27;20205;-88
2022/12/12 02:06:52;;;;;;;5.50;3.60;;;6.30;99.90;;;;;;5145449;27;20214;-88
2022/12/12 02:09:25;;;;;;;4.30;3.77;;;6.30;99.90;;;;;;5141869;27;20327;-88
2022/12/12 02:11:57;;;;;;;4.17;3.70;;;6.30;99.90;;;;;;5141841;27;20285;-88
2022/12/12 02:14:33;;;;;;;5.97;3.70;;;6.30;99.90;;;;;;5141194;27;20217;-88
2022/12/12 02:17:26;;;;;;;5.47;3.30;;;6.30;99.90;;;;;;5142094;27;20198;-87
2022/12/12 02:20:41;;;;;;;6.13;4.07;;;6.40;99.90;;;;;;5130401;27;20204;-87
2022/12/12 02:24:02;;;;;;;5.10;3.93;;;6.30;99.90;;;;;;5140530;27;20205;-88
2022/12/12 02:27:17;;;;;;;5.40;3.80;;;6.40;99.90;;;;;;5143005;27;20197;-87
2022/12/12 02:30:13;;;;;;;5.73;4.00;;;6.40;99.90;;;;;;5142450;27;20611;-88
2022/12/12 02:33:20;;;;;;;5.60;3.83;;;6.40;99.90;;;;;;5143524;27;20223;-88
2022/12/12 02:36:01;;;;;;;7.20;3.90;;;6.30;99.90;;;;;;5153777;27;20201;-88
2022/12/12 02:38:38;;;;;;;5.60;4.00;;;6.30;99.90;;;;;;5159842;27;20241;-88
2022/12/12 02:41:20;;;;;;;4.77;3.70;;;6.30;99.90;;;;;;5160017;27;20212;-88
2022/12/12 02:44:07;;;;;;;3.80;3.40;;;6.40;99.90;;;;;;5157055;27;20292;-88
2022/12/12 02:46:44;;;;;;;6.20;3.80;;;6.40;99.90;;;;;;5151521;27;20205;-88
2022/12/12 02:49:22;;;;;;;5.00;3.70;;;6.30;99.90;;;;;;5151323;27;20280;-88
2022/12/12 02:51:54;;;;;;;5.90;4.20;;;6.30;99.90;;;;;;5147488;27;20285;-88
2022/12/12 02:54:25;;;;;;;4.50;3.63;;;6.30;99.90;;;;;;5141298;27;20202;-88
2022/12/12 02:56:57;;;;;;;4.17;3.77;;;6.30;99.90;;;;;;5147205;27;20212;-88
2022/12/12 02:59:32;;;;;;;7.43;3.90;;;6.30;99.90;;;;;;5147442;27;20206;-88
2022/12/12 03:02:27;;;;;;;4.80;3.53;;;6.30;99.90;;;;;;5143287;27;20197;-88
2022/12/12 03:08:34;;;;;;;5.03;3.83;;;6.30;99.90;;;;;;5144545;27;20196;-88
2022/12/12 03:11:09;;;;;;;6.17;4.43;;;6.30;99.90;;;;;;5140032;27;20292;-88
2022/12/12 03:13:48;;;;;;;4.70;4.13;;;6.30;99.90;;;;;;5140937;27;20639;-88
2022/12/12 03:16:28;;;;;;;5.57;4.87;;;6.30;99.90;;;;;;5143896;27;20212;-87
2022/12/12 03:19:05;;;;;;;9.07;4.67;;;6.30;99.90;;;;;;5148428;27;20219;-89
2022/12/12 03:21:42;;;;;;;9.57;5.17;;;6.20;99.90;;;;;;5159682;27;20247;-88
2022/12/12 03:24:21;;;;;;;8.97;5.40;;;6.20;99.90;;;;;;5159306;27;20192;-88
2022/12/12 03:27:00;;;;;;;5.87;4.50;;;6.30;99.90;;;;;;5159667;27;20220;-88
2022/12/12 03:29:37;;;;;;;5.97;3.90;;;6.30;99.90;;;;;;5158919;27;20221;-89
2022/12/12 03:32:11;;;;;;;5.00;4.50;;;6.30;99.90;;;;;;5143560;27;20223;-88
2022/12/12 03:34:49;;;;;;;6.30;4.73;;;6.30;99.90;;;;;;5123253;27;20211;-88
2022/12/12 03:37:25;;;;;;;5.83;4.70;;;6.30;99.90;;;;;;5140595;27;20219;-87
2022/12/12 03:40:00;;;;;;;6.23;5.00;;;6.30;99.90;;;;;;5139436;27;20198;-88
2022/12/12 03:42:36;;;;;;;4.93;4.00;;;6.30;99.90;;;;;;5138802;27;20212;-88
2022/12/12 03:45:13;;;;;;;4.43;4.00;;;6.30;99.90;;;;;;5139684;27;20221;-88
2022/12/12 03:47:51;;;;;;;4.60;4.03;;;6.30;99.90;;;;;;5140331;27;20197;-88
2022/12/12 03:50:24;;;;;;;4.77;4.27;;;6.30;99.90;;;;;;5139925;27;20232;-86
2022/12/12 03:53:02;;;;;;;4.80;4.30;;;6.30;99.90;;;;;;5138926;27;20205;-88
2022/12/12 03:55:40;;;;;;;4.83;4.13;;;6.30;99.90;;;;;;5140073;27;20222;-88
2022/12/12 03:58:17;;;;;;;7.47;4.47;;;6.40;99.90;;;;;;5147111;27;20211;-87
2022/12/12 04:00:52;;;;;;;5.83;4.60;;;6.30;99.90;;;;;;5141904;27;20216;-88
2022/12/12 04:03:29;;;;;;;4.73;4.07;;;6.30;99.90;;;;;;5139046;27;20229;-88
2022/12/12 04:14:46;;;;;;;4.80;3.93;;;6.40;99.90;;;;;;5098184;27;20211;-88
2022/12/12 04:17:26;;;;;;;5.33;3.60;;;6.40;99.90;;;;;;5145090;27;20212;-88
2022/12/12 04:23:16;;;;;;;5.57;3.50;;;6.30;99.90;;;;;;5095991;27;20205;-87
2022/12/12 04:28:52;;;;;;;5.10;4.00;;;6.20;99.90;;;;;;5144641;27;20193;-95
2022/12/12 04:31:26;;;;;;;4.37;3.63;;;6.30;99.90;;;;;;5133362;27;20229;-93
2022/12/12 04:34:11;;;;;;;3.97;3.27;;;6.30;99.90;;;;;;5141371;27;20205;-92
2022/12/12 04:36:51;;;;;;;4.70;3.20;;;6.20;99.90;;;;;;5152001;27;20336;-92
2022/12/12 04:39:24;;;;;;;3.87;3.43;;;6.20;99.90;;;;;;5145041;27;20253;-95
2022/12/12 04:41:58;;;;;;;5.30;2.87;;;6.20;99.90;;;;;;5145411;27;20209;-91
2022/12/12 04:44:34;;;;;;;4.47;2.90;;;6.20;99.90;;;;;;5136613;27;20285;-93
2022/12/12 04:47:09;;;;;;;5.00;3.00;;;6.20;99.90;;;;;;5130260;28;20193;-93
2022/12/12 04:49:46;;;;;;;3.33;3.03;;;6.20;99.90;;;;;;5149383;27;20221;-94
2022/12/12 04:52:19;;;;;;;3.53;2.70;;;6.20;99.90;;;;;;5146208;28;20280;-93
2022/12/12 04:54:56;;;;;;;3.37;2.70;;;6.20;99.90;;;;;;5148318;28;20214;-93
2022/12/12 04:57:38;;;;;;;3.13;2.50;;;6.20;99.90;;;;;;5143145;28;20292;-93
2022/12/12 05:00:23;;;;;;;2.93;2.63;;;6.20;99.90;;;;;;5152403;27;20264;-93
2022/12/12 05:03:12;;;;;;;3.87;3.23;;;6.20;99.90;;;;;;5136825;28;20206;-93
2022/12/12 05:05:48;;;;;;;4.67;3.03;;;6.20;99.90;;;;;;5138119;28;20770;-93
2022/12/12 05:08:24;;;;;;;5.73;2.73;;;6.10;99.90;;;;;;5139524;28;20219;-96
2022/12/12 05:10:58;;;;;;;3.37;3.07;;;6.20;99.90;;;;;;5140544;28;20638;-92
2022/12/12 05:13:34;;;;;;;3.57;2.47;;;6.10;99.90;;;;;;5133738;28;20208;-93
2022/12/12 05:16:15;;;;;;;5.40;2.90;;;6.10;99.90;;;;;;5134412;28;20277;-92
2022/12/12 05:18:48;;;;;;;3.43;2.43;;;6.00;99.90;;;;;;5135703;28;20221;-91
2022/12/12 05:21:21;;;;;;;4.17;2.33;;;6.10;99.90;;;;;;5137903;28;20225;-92
2022/12/12 05:23:52;;;;;;;5.97;2.10;;;6.10;99.90;;;;;;5134393;28;20205;-92
2022/12/12 05:26:26;;;;;;;2.30;2.00;;;6.00;99.90;;;;;;5135277;28;20202;-92
2022/12/12 05:29:00;;;;;;;2.60;1.97;;;6.00;99.90;;;;;;5137921;28;20225;-93
2022/12/12 05:31:38;;;;;;;2.00;1.80;;;6.00;99.90;;;;;;5136515;28;20257;-91
2022/12/12 05:34:10;;;;;;;6.30;1.67;;;5.90;99.90;;;;;;5133165;27;20204;-92
2022/12/12 05:36:43;;;;;;;3.30;1.33;;;5.90;99.90;;;;;;5147129;27;20199;-92
2022/12/12 05:39:17;;;;;;;1.50;1.23;;;5.90;99.90;;;;;;5149503;27;20185;-94
2022/12/12 05:41:49;;;;;;;4.70;1.77;;;5.80;99.90;;;;;;5159454;27;20181;-93
2022/12/12 05:44:23;;;;;;;1.93;1.57;;;5.80;99.90;;;;;;5154331;27;20221;-92
2022/12/12 05:46:56;;;;;;;3.17;1.57;;;5.80;99.90;;;;;;5153443;27;20661;-90
2022/12/12 05:49:27;;;;;;;2.17;1.43;;;5.80;99.90;;;;;;5143737;27;20214;-90
2022/12/12 05:51:58;;;;;;;2.43;1.60;;;5.80;99.90;;;;;;5142244;27;20293;-90
2022/12/12 05:54:30;;;;;;;2.37;1.80;;;5.80;99.90;;;;;;5138720;27;20216;-90
2022/12/12 05:57:05;;;;;;;3.13;1.80;;;5.80;99.90;;;;;;5129420;27;20229;-91
2022/12/12 05:59:40;;;;;;;3.63;1.80;;;5.80;99.90;;;;;;5128616;27;20568;-90
2022/12/12 06:02:12;;;;;;;2.57;1.60;;;5.80;99.90;;;;;;5143828;27;20216;-90
2022/12/12 06:04:43;;;;;;;3.20;1.93;;;5.80;99.90;;;;;;5141540;27;20210;-91
2022/12/12 06:07:17;;;;;;;3.23;1.60;;;5.80;99.90;;;;;;5132191;27;20205;-90
2022/12/12 06:09:48;;;;;;;4.07;2.20;;;5.80;99.90;;;;;;5142949;27;20217;-90
2022/12/12 06:12:21;;;;;;;3.20;2.10;;;5.80;99.90;;;;;;5142996;27;20229;-90
2022/12/12 06:14:54;;;;;;;7.17;2.63;;;5.70;99.90;;;;;;5143009;27;20198;-91
2022/12/12 06:17:25;;;;;;;3.97;2.53;;;5.70;99.90;;;;;;5141624;27;20288;-91
2022/12/12 06:20:02;;;;;;;3.07;2.27;;;5.70;99.90;;;;;;5138876;27;20250;-91
2022/12/12 06:22:34;;;;;;;4.03;2.30;;;5.70;99.90;;;;;;5144234;27;20232;-92
2022/12/12 06:25:07;;;;;;;5.27;2.70;;;5.70;99.90;;;;;;5138425;27;20198;-92
2022/12/12 06:27:40;;;;;;;6.37;2.70;;;5.70;99.90;;;;;;5143467;27;20296;-92
2022/12/12 06:30:18;;;;;;;3.80;2.13;;;5.70;99.90;;;;;;5140499;27;20201;-92
2022/12/12 06:32:50;;;;;;;4.23;2.20;;;5.70;99.90;;;;;;5143054;27;20216;-92
2022/12/12 06:35:21;;;;;;;3.20;2.40;;;5.80;99.90;;;;;;5144503;27;20189;-93
2022/12/12 06:37:52;;;;;;;4.70;2.23;;;5.70;99.90;;;;;;5147680;27;20269;-92
2022/12/12 06:40:24;;;;;;;6.10;2.20;;;5.70;99.90;;;;;;5143257;27;20204;-93
2022/12/12 06:42:56;;;;;;;2.97;2.30;;;5.70;99.90;;;;;;5141969;27;20264;-92
2022/12/12 06:45:31;;;;;;;3.40;2.37;;;5.70;99.90;;;;;;5139136;27;20190;-91
2022/12/12 06:48:03;;;;;;;5.13;2.10;;;5.70;99.90;;;;;;5142192;27;20216;-91
2022/12/12 06:50:35;;;;;;;4.57;2.30;;;5.70;99.90;;;;;;5138373;27;20198;-92
2022/12/12 06:53:08;;;;;;;3.70;2.10;;;5.70;99.90;;;;;;5148542;27;20246;-90
2022/12/12 06:55:43;;;;;;;3.60;2.20;;;5.70;99.90;;;;;;5140916;27;20204;-91
2022/12/12 06:58:14;;;;;;;2.73;2.07;;;5.70;99.90;;;;;;5141282;27;20227;-91
2022/12/12 07:00:53;;;;;;;4.83;1.93;;;5.70;99.90;;;;;;5142237;27;20201;-91
2022/12/12 07:03:24;;;;;;;3.07;2.03;;;5.70;99.90;;;;;;5130654;27;20198;-90
2022/12/12 07:05:56;;;;;;;3.83;2.13;;;5.70;99.90;;;;;;5140357;27;20228;-89
2022/12/12 07:08:28;;;;;;;2.57;2.00;;;5.70;99.90;;;;;;5140597;27;20197;-91
2022/12/12 07:11:04;;;;;;;2.97;2.00;;;5.70;99.90;;;;;;5138939;27;20222;-91
2022/12/12 07:13:35;;;;;;;4.73;2.20;;;5.70;99.90;;;;;;5135501;27;20193;-91
2022/12/12 07:16:11;;;;;;;5.10;2.10;;;5.70;99.90;;;;;;5123740;27;20212;-91
2022/12/12 07:18:43;;;;;;;4.73;2.27;;;5.70;99.90;;;;;;5140018;27;20916;-91
2022/12/12 07:21:19;;;;;;;4.23;2.40;;;5.70;99.90;;;;;;5143833;27;20235;-91
2022/12/12 07:23:51;;;;;;;3.20;2.33;;;5.60;99.90;;;;;;5141385;27;20216;-91
2022/12/12 07:26:24;;;;;;;4.37;2.57;;;5.60;99.90;;;;;;5139286;27;20652;-91
2022/12/12 07:28:55;;;;;;;7.70;2.43;;;5.60;99.90;;;;;;5139321;27;20617;-91
2022/12/12 07:31:29;;;;;;;2.67;2.20;;;5.60;99.90;;;;;;5143944;27;20221;-91
2022/12/12 07:34:00;;;;;;;4.87;2.50;;;5.60;99.90;;;;;;5139268;27;20205;-91
2022/12/12 07:36:32;;;;;;;3.80;2.00;;;5.60;99.90;;;;;;5143414;27;20204;-91
2022/12/12 07:39:03;;;;;;;3.13;1.83;;;5.60;99.90;;;;;;5132680;27;20202;-90
2022/12/12 07:41:34;;;;;;;3.53;2.20;;;5.50;99.90;;;;;;5140818;27;20210;-91
2022/12/12 07:44:06;;;;;;;7.37;1.80;;;5.50;99.90;;;;;;5127910;27;20221;-91
2022/12/12 07:46:41;;;;;;;4.47;1.90;;;5.50;99.90;;;;;;5147484;27;20204;-92
2022/12/12 07:49:14;;;;;;;2.60;1.90;;;5.40;99.90;;;;;;5141056;27;20224;-91
2022/12/12 07:51:46;;;;;;;2.33;1.90;;;5.40;99.90;;;;;;5141614;27;20260;-91
2022/12/12 07:54:19;;;;;;;3.43;1.83;;;5.40;99.90;;;;;;5149925;27;20193;-90
2022/12/12 07:56:51;;;;;;;5.20;1.93;;;5.30;99.90;;;;;;5158203;27;20206;-90
2022/12/12 07:59:23;;;;;;;3.77;2.27;;;5.30;99.90;;;;;;5144172;27;20213;-91
2022/12/12 08:01:57;;;;;;;4.37;2.13;;;5.30;99.90;;;;;;5131262;28;20279;-92
2022/12/12 08:04:29;;;;;;;3.17;1.97;;;5.30;99.90;;;;;;5149397;27;20228;-90
2022/12/12 08:07:00;;;;;;;2.83;1.90;;;5.30;99.90;;;;;;5146970;27;20197;-91
2022/12/12 08:09:39;;;;;;;3.83;2.00;;;5.20;99.90;;;;;;5155922;27;20253;-90
2022/12/12 08:12:12;;;;;;;2.70;2.03;;;5.30;99.90;;;;;;5157626;27;20221;-90
2022/12/12 08:14:43;;;;;;;3.60;2.40;;;5.30;99.90;;;;;;5157103;27;20209;-90
2022/12/12 08:17:16;;;;;;;3.57;2.40;;;5.20;99.90;;;;;;5146078;27;20278;-89
2022/12/12 08:19:48;;;;;;;3.07;2.60;;;5.20;99.90;;;;;;5155467;27;20257;-90
2022/12/12 08:22:19;;;;;;;2.53;2.20;;;5.20;99.90;;;;;;5149090;27;20205;-90
2022/12/12 08:24:51;;;;;;;4.80;2.80;;;5.20;99.90;;;;;;5149423;27;20236;-91
2022/12/12 08:27:22;;;;;;;5.20;2.40;;;5.30;99.90;;;;;;5142766;27;20672;-91
2022/12/12 08:29:56;;;;;;;3.77;2.20;;;5.20;99.90;;;;;;5140364;27;20214;-90
2022/12/12 08:32:29;;;;;;;3.23;1.80;;;5.30;99.90;;;;;;5141779;27;20225;-91
2022/12/12 08:35:06;;;;;;;3.13;2.23;;;5.30;99.90;;;;;;5137534;27;20212;-90
2022/12/12 08:37:38;;;;;;;3.77;2.03;;;5.20;99.90;;;;;;5104283;28;20296;-91
2022/12/12 08:40:11;;;;;;;2.87;2.30;;;5.20;99.90;;;;;;5122313;28;20208;-91
2022/12/12 08:42:42;;;;;;;4.40;2.60;;;5.20;99.90;;;;;;5131899;27;20258;-90
2022/12/12 08:45:14;;;;;;;2.97;1.90;;;5.30;99.90;;;;;;5140207;27;20308;-91
